GAP2372 RPMD-RPSP
Flight info
| Callsign | GAP2372 |
|---|---|
| Flight time | 0h 40m |
| Altitude | 20000 |
| Route | ANKIN3R ANKIN B473 FORTA FORTA1P |
| Aircraft | DH8D/M-SDE2E3FGRY/H |
Departure
| Time | 2026-05-06 07:27 |
|---|---|
| Airport | Francisco Bangoy International Airport (RPMD) |
Arrival
| Time | 2026-05-06 08:07 |
|---|---|
| Airport | Bohol-Panglao International Airport (RPSP) |
| Time | Latitude | Longitude | Altitude | Speed | Heading |
|---|---|---|---|---|---|
| 2026-05-06 07:17 | 7.13067 | 125.64698 | 117 ft | 0 kts | 319° |
| 2026-05-06 07:21 | 7.13068 | 125.64696 | 117 ft | 1 kts | 294° |
| 2026-05-06 07:21 | 7.13059 | 125.64689 | 117 ft | 2 kts | 180° |
| 2026-05-06 07:22 | 7.13036 | 125.64698 | 117 ft | 5 kts | 158° |
| 2026-05-06 07:22 | 7.12987 | 125.64713 | 117 ft | 10 kts | 179° |
| 2026-05-06 07:22 | 7.12926 | 125.64668 | 117 ft | 11 kts | 229° |
| 2026-05-06 07:22 | 7.12869 | 125.64602 | 117 ft | 13 kts | 227° |
| 2026-05-06 07:23 | 7.12805 | 125.64529 | 117 ft | 14 kts | 229° |
| 2026-05-06 07:23 | 7.12746 | 125.64460 | 117 ft | 10 kts | 226° |
| 2026-05-06 07:23 | 7.12683 | 125.64459 | 117 ft | 11 kts | 139° |
| 2026-05-06 07:23 | 7.12616 | 125.64518 | 117 ft | 14 kts | 139° |
| 2026-05-06 07:24 | 7.12539 | 125.64552 | 117 ft | 11 kts | 201° |
| 2026-05-06 07:24 | 7.12465 | 125.64477 | 117 ft | 19 kts | 229° |
| 2026-05-06 07:24 | 7.12352 | 125.64346 | 117 ft | 29 kts | 229° |
| 2026-05-06 07:24 | 7.12200 | 125.64168 | 118 ft | 37 kts | 229° |
| 2026-05-06 07:25 | 7.12016 | 125.63955 | 118 ft | 40 kts | 229° |
| 2026-05-06 07:25 | 7.11849 | 125.63761 | 118 ft | 32 kts | 230° |
| 2026-05-06 07:25 | 7.11740 | 125.63618 | 118 ft | 21 kts | 243° |
| 2026-05-06 07:25 | 7.11689 | 125.63547 | 118 ft | 6 kts | 191° |
| 2026-05-06 07:26 | 7.11681 | 125.63564 | 118 ft | 3 kts | 56° |
| 2026-05-06 07:26 | 7.11735 | 125.63628 | 118 ft | 33 kts | 49° |
| 2026-05-06 07:26 | 7.12098 | 125.64051 | 118 ft | 120 kts | 49° |
| 2026-05-06 07:26 | 7.12755 | 125.64821 | 250 ft | 156 kts | 48° |
| 2026-05-06 07:27 | 7.13496 | 125.65688 | 702 ft | 170 kts | 47° |
| 2026-05-06 07:27 | 7.14303 | 125.66591 | 1278 ft | 178 kts | 44° |
| 2026-05-06 07:27 | 7.15381 | 125.67162 | 1836 ft | 182 kts | 4° |
| 2026-05-06 07:27 | 7.16683 | 125.67048 | 2292 ft | 192 kts | 351° |
| 2026-05-06 07:28 | 7.18008 | 125.66844 | 2820 ft | 194 kts | 352° |
| 2026-05-06 07:28 | 7.19345 | 125.66633 | 3342 ft | 196 kts | 352° |
| 2026-05-06 07:28 | 7.22060 | 125.66201 | 4451 ft | 198 kts | 352° |
| 2026-05-06 07:29 | 7.23428 | 125.65984 | 5044 ft | 200 kts | 352° |
| 2026-05-06 07:29 | 7.24799 | 125.65766 | 5594 ft | 202 kts | 352° |
| 2026-05-06 07:29 | 7.26183 | 125.65546 | 6149 ft | 202 kts | 352° |
| 2026-05-06 07:29 | 7.27575 | 125.65324 | 6710 ft | 205 kts | 352° |
| 2026-05-06 07:30 | 7.28994 | 125.65099 | 7319 ft | 207 kts | 352° |
| 2026-05-06 07:30 | 7.30418 | 125.64874 | 7946 ft | 208 kts | 352° |
| 2026-05-06 07:30 | 7.31855 | 125.64646 | 8567 ft | 211 kts | 352° |
| 2026-05-06 07:30 | 7.33303 | 125.64417 | 9200 ft | 212 kts | 352° |
| 2026-05-06 07:31 | 7.34773 | 125.64184 | 9786 ft | 215 kts | 352° |
| 2026-05-06 07:31 | 7.36249 | 125.63950 | 10406 ft | 217 kts | 352° |
| 2026-05-06 07:31 | 7.37796 | 125.63703 | 10845 ft | 232 kts | 352° |
| 2026-05-06 07:31 | 7.39435 | 125.63442 | 11286 ft | 245 kts | 352° |
| 2026-05-06 07:32 | 7.41140 | 125.63168 | 11896 ft | 251 kts | 352° |
| 2026-05-06 07:32 | 7.42877 | 125.62888 | 12551 ft | 255 kts | 352° |
| 2026-05-06 07:32 | 7.44646 | 125.62605 | 13221 ft | 258 kts | 352° |
| 2026-05-06 07:32 | 7.46369 | 125.62092 | 13828 ft | 266 kts | 330° |
| 2026-05-06 07:33 | 7.47701 | 125.60788 | 14466 ft | 273 kts | 310° |
| 2026-05-06 07:33 | 7.48865 | 125.59282 | 15161 ft | 276 kts | 309° |
| 2026-05-06 07:33 | 7.50060 | 125.57729 | 15861 ft | 280 kts | 309° |
| 2026-05-06 07:33 | 7.51250 | 125.56183 | 16526 ft | 285 kts | 309° |
| 2026-05-06 07:34 | 7.52479 | 125.54591 | 17248 ft | 289 kts | 310° |
| 2026-05-06 07:34 | 7.53710 | 125.52998 | 17997 ft | 290 kts | 309° |
| 2026-05-06 07:34 | 7.54955 | 125.51391 | 18657 ft | 295 kts | 309° |
| 2026-05-06 07:34 | 7.56223 | 125.49753 | 19325 ft | 300 kts | 309° |
| 2026-05-06 07:35 | 7.57535 | 125.48061 | 19774 ft | 315 kts | 309° |
| 2026-05-06 07:35 | 7.58933 | 125.46257 | 19926 ft | 339 kts | 309° |
| 2026-05-06 07:35 | 7.60428 | 125.44325 | 19975 ft | 362 kts | 309° |
| 2026-05-06 07:35 | 7.62015 | 125.42273 | 19987 ft | 380 kts | 309° |
| 2026-05-06 07:36 | 7.63657 | 125.40147 | 19985 ft | 382 kts | 309° |
| 2026-05-06 07:36 | 7.65283 | 125.38040 | 19998 ft | 379 kts | 309° |
| 2026-05-06 07:36 | 7.66911 | 125.35932 | 20019 ft | 379 kts | 309° |
| 2026-05-06 07:36 | 7.68524 | 125.33846 | 20029 ft | 380 kts | 309° |
| 2026-05-06 07:37 | 7.70159 | 125.31735 | 20029 ft | 381 kts | 309° |
| 2026-05-06 07:37 | 7.71785 | 125.29633 | 20043 ft | 381 kts | 309° |
| 2026-05-06 07:37 | 7.73434 | 125.27504 | 20063 ft | 382 kts | 309° |
| 2026-05-06 07:37 | 7.75061 | 125.25403 | 20072 ft | 382 kts | 309° |
| 2026-05-06 07:38 | 7.76691 | 125.23298 | 20072 ft | 382 kts | 309° |
| 2026-05-06 07:38 | 7.78335 | 125.21175 | 20058 ft | 382 kts | 309° |
| 2026-05-06 07:38 | 7.79973 | 125.19059 | 20048 ft | 382 kts | 309° |
| 2026-05-06 07:38 | 7.81609 | 125.16947 | 20034 ft | 382 kts | 309° |
| 2026-05-06 07:39 | 7.83254 | 125.14823 | 20026 ft | 382 kts | 309° |
| 2026-05-06 07:39 | 7.84897 | 125.12701 | 20017 ft | 383 kts | 309° |
| 2026-05-06 07:39 | 7.86532 | 125.10589 | 20014 ft | 382 kts | 309° |
| 2026-05-06 07:39 | 7.88161 | 125.08484 | 20008 ft | 382 kts | 309° |
| 2026-05-06 07:40 | 7.89793 | 125.06375 | 20003 ft | 382 kts | 309° |
| 2026-05-06 07:40 | 7.91441 | 125.04246 | 20010 ft | 382 kts | 309° |
| 2026-05-06 07:40 | 7.93065 | 125.02147 | 19995 ft | 382 kts | 309° |
| 2026-05-06 07:40 | 7.94711 | 125.00021 | 20004 ft | 382 kts | 309° |
| 2026-05-06 07:41 | 7.96367 | 124.97900 | 20000 ft | 382 kts | 310° |
| 2026-05-06 07:41 | 7.98271 | 124.96053 | 20052 ft | 378 kts | 322° |
| 2026-05-06 07:41 | 8.00322 | 124.94386 | 20053 ft | 379 kts | 322° |
| 2026-05-06 07:41 | 8.02368 | 124.92733 | 20051 ft | 379 kts | 322° |
| 2026-05-06 07:42 | 8.04437 | 124.91061 | 20053 ft | 379 kts | 323° |
| 2026-05-06 07:42 | 8.06488 | 124.89401 | 20062 ft | 379 kts | 322° |
| 2026-05-06 07:42 | 8.08558 | 124.87722 | 20061 ft | 379 kts | 322° |
| 2026-05-06 07:42 | 8.10607 | 124.86058 | 20060 ft | 379 kts | 322° |
| 2026-05-06 07:43 | 8.12694 | 124.84362 | 20051 ft | 379 kts | 322° |
| 2026-05-06 07:43 | 8.14745 | 124.82693 | 20042 ft | 379 kts | 322° |
| 2026-05-06 07:43 | 8.16786 | 124.81032 | 20043 ft | 379 kts | 322° |
| 2026-05-06 07:43 | 8.18843 | 124.79358 | 20035 ft | 380 kts | 322° |
| 2026-05-06 07:44 | 8.20922 | 124.77663 | 20013 ft | 380 kts | 322° |
| 2026-05-06 07:44 | 8.22967 | 124.75996 | 19994 ft | 380 kts | 322° |
| 2026-05-06 07:44 | 8.25034 | 124.74312 | 19995 ft | 380 kts | 322° |
| 2026-05-06 07:44 | 8.27085 | 124.72639 | 19989 ft | 381 kts | 322° |
| 2026-05-06 07:45 | 8.29151 | 124.70954 | 19974 ft | 381 kts | 322° |
| 2026-05-06 07:45 | 8.31233 | 124.69256 | 19957 ft | 381 kts | 322° |
| 2026-05-06 07:45 | 8.33308 | 124.67562 | 19952 ft | 382 kts | 322° |
| 2026-05-06 07:45 | 8.35377 | 124.65874 | 19932 ft | 382 kts | 322° |
| 2026-05-06 07:46 | 8.37447 | 124.64185 | 19924 ft | 382 kts | 322° |
| 2026-05-06 07:46 | 8.39509 | 124.62501 | 19928 ft | 382 kts | 322° |
| 2026-05-06 07:46 | 8.41607 | 124.60841 | 19905 ft | 382 kts | 326° |
| 2026-05-06 07:46 | 8.43872 | 124.59446 | 19907 ft | 380 kts | 332° |
| 2026-05-06 07:47 | 8.46172 | 124.58128 | 19885 ft | 380 kts | 332° |
| 2026-05-06 07:47 | 8.48466 | 124.56816 | 19888 ft | 380 kts | 332° |
| 2026-05-06 07:47 | 8.50796 | 124.55481 | 19886 ft | 380 kts | 332° |
| 2026-05-06 07:47 | 8.53073 | 124.54174 | 19891 ft | 381 kts | 332° |
| 2026-05-06 07:48 | 8.55397 | 124.52839 | 19883 ft | 381 kts | 332° |
| 2026-05-06 07:48 | 8.57699 | 124.51514 | 19889 ft | 381 kts | 332° |
| 2026-05-06 07:48 | 8.60012 | 124.50182 | 19880 ft | 381 kts | 332° |
| 2026-05-06 07:48 | 8.62321 | 124.48852 | 19865 ft | 381 kts | 332° |
| 2026-05-06 07:49 | 8.64654 | 124.47506 | 19869 ft | 381 kts | 332° |
| 2026-05-06 07:49 | 8.66932 | 124.46191 | 19891 ft | 380 kts | 332° |
| 2026-05-06 07:49 | 8.69229 | 124.44867 | 19882 ft | 380 kts | 332° |
| 2026-05-06 07:49 | 8.71547 | 124.43528 | 19868 ft | 379 kts | 332° |
| 2026-05-06 07:50 | 8.73824 | 124.42213 | 19874 ft | 378 kts | 332° |
| 2026-05-06 07:50 | 8.76130 | 124.40878 | 19644 ft | 380 kts | 331° |
| 2026-05-06 07:50 | 8.78249 | 124.39290 | 19459 ft | 379 kts | 318° |
| 2026-05-06 07:50 | 8.80044 | 124.37365 | 19078 ft | 382 kts | 313° |
| 2026-05-06 07:51 | 8.81829 | 124.35367 | 18635 ft | 381 kts | 313° |
| 2026-05-06 07:51 | 8.83609 | 124.33366 | 18187 ft | 377 kts | 313° |
| 2026-05-06 07:51 | 8.85347 | 124.31418 | 17717 ft | 374 kts | 313° |
| 2026-05-06 07:51 | 8.87096 | 124.29462 | 17304 ft | 371 kts | 313° |
| 2026-05-06 07:52 | 8.88813 | 124.27543 | 16852 ft | 368 kts | 313° |
| 2026-05-06 07:52 | 8.90538 | 124.25618 | 16434 ft | 366 kts | 313° |
| 2026-05-06 07:52 | 8.92249 | 124.23710 | 16000 ft | 365 kts | 313° |
| 2026-05-06 07:52 | 8.93947 | 124.21818 | 15575 ft | 365 kts | 313° |
| 2026-05-06 07:53 | 8.95655 | 124.19915 | 15138 ft | 364 kts | 313° |
| 2026-05-06 07:53 | 8.97346 | 124.18031 | 14715 ft | 363 kts | 313° |
| 2026-05-06 07:53 | 8.99041 | 124.16143 | 14287 ft | 360 kts | 313° |
| 2026-05-06 07:53 | 9.00711 | 124.14281 | 13861 ft | 355 kts | 313° |
| 2026-05-06 07:54 | 9.02360 | 124.12444 | 13447 ft | 350 kts | 313° |
| 2026-05-06 07:54 | 9.04004 | 124.10614 | 13065 ft | 347 kts | 313° |
| 2026-05-06 07:54 | 9.05616 | 124.08820 | 12717 ft | 347 kts | 313° |
| 2026-05-06 07:54 | 9.07241 | 124.07011 | 12320 ft | 348 kts | 313° |
| 2026-05-06 07:55 | 9.08882 | 124.05183 | 11933 ft | 347 kts | 313° |
| 2026-05-06 07:55 | 9.10490 | 124.03392 | 11519 ft | 339 kts | 313° |
| 2026-05-06 07:55 | 9.12040 | 124.01657 | 11114 ft | 324 kts | 313° |
| 2026-05-06 07:55 | 9.13515 | 124.00010 | 10741 ft | 309 kts | 313° |
| 2026-05-06 07:56 | 9.14929 | 123.98434 | 10385 ft | 297 kts | 314° |
| 2026-05-06 07:56 | 9.16293 | 123.96917 | 10048 ft | 285 kts | 314° |
| 2026-05-06 07:56 | 9.17633 | 123.95431 | 9723 ft | 287 kts | 314° |
| 2026-05-06 07:56 | 9.18998 | 123.93919 | 9378 ft | 291 kts | 314° |
| 2026-05-06 07:57 | 9.20345 | 123.92419 | 9028 ft | 289 kts | 313° |
| 2026-05-06 07:57 | 9.21695 | 123.90915 | 8686 ft | 286 kts | 314° |
| 2026-05-06 07:57 | 9.23028 | 123.89429 | 8347 ft | 283 kts | 314° |
| 2026-05-06 07:57 | 9.24339 | 123.87966 | 8014 ft | 278 kts | 314° |
| 2026-05-06 07:58 | 9.25620 | 123.86538 | 7695 ft | 272 kts | 314° |
| 2026-05-06 07:58 | 9.26889 | 123.85123 | 7380 ft | 268 kts | 314° |
| 2026-05-06 07:58 | 9.28128 | 123.83742 | 7068 ft | 264 kts | 314° |
| 2026-05-06 07:58 | 9.29361 | 123.82367 | 6759 ft | 262 kts | 314° |
| 2026-05-06 07:59 | 9.30593 | 123.80995 | 6449 ft | 263 kts | 314° |
| 2026-05-06 07:59 | 9.31814 | 123.79635 | 6152 ft | 264 kts | 315° |
| 2026-05-06 07:59 | 9.33071 | 123.78236 | 5834 ft | 266 kts | 314° |
| 2026-05-06 07:59 | 9.34319 | 123.76854 | 5522 ft | 265 kts | 315° |
| 2026-05-06 08:00 | 9.35522 | 123.75466 | 5208 ft | 264 kts | 309° |
| 2026-05-06 08:00 | 9.36501 | 123.73920 | 4900 ft | 254 kts | 303° |
| 2026-05-06 08:00 | 9.37379 | 123.72429 | 4604 ft | 243 kts | 304° |
| 2026-05-06 08:00 | 9.38227 | 123.70982 | 4330 ft | 233 kts | 303° |
| 2026-05-06 08:01 | 9.39039 | 123.69596 | 4054 ft | 222 kts | 304° |
| 2026-05-06 08:01 | 9.39961 | 123.68402 | 3577 ft | 216 kts | 329° |
| 2026-05-06 08:01 | 9.41329 | 123.68092 | 3303 ft | 200 kts | 14° |
| 2026-05-06 08:01 | 9.42624 | 123.68606 | 3071 ft | 201 kts | 28° |
| 2026-05-06 08:02 | 9.43890 | 123.69254 | 2809 ft | 203 kts | 28° |
| 2026-05-06 08:02 | 9.45120 | 123.69907 | 2542 ft | 197 kts | 29° |
| 2026-05-06 08:02 | 9.46307 | 123.70561 | 2286 ft | 191 kts | 30° |
| 2026-05-06 08:02 | 9.47424 | 123.71188 | 2045 ft | 173 kts | 30° |
| 2026-05-06 08:03 | 9.48415 | 123.71749 | 1828 ft | 152 kts | 30° |
| 2026-05-06 08:03 | 9.49281 | 123.72246 | 1647 ft | 129 kts | 31° |
| 2026-05-06 08:03 | 9.50042 | 123.72693 | 1486 ft | 126 kts | 32° |
| 2026-05-06 08:03 | 9.50799 | 123.73147 | 1316 ft | 127 kts | 32° |
| 2026-05-06 08:04 | 9.51551 | 123.73594 | 1145 ft | 124 kts | 31° |
| 2026-05-06 08:04 | 9.52298 | 123.74034 | 981 ft | 123 kts | 31° |
| 2026-05-06 08:04 | 9.53042 | 123.74480 | 849 ft | 122 kts | 32° |
| 2026-05-06 08:04 | 9.53783 | 123.74905 | 686 ft | 123 kts | 30° |
| 2026-05-06 08:05 | 9.54514 | 123.75337 | 531 ft | 120 kts | 32° |
| 2026-05-06 08:05 | 9.55245 | 123.75774 | 327 ft | 121 kts | 31° |
| 2026-05-06 08:05 | 9.55974 | 123.76216 | 182 ft | 124 kts | 31° |
| 2026-05-06 08:05 | 9.56712 | 123.76659 | 56 ft | 123 kts | 31° |
| 2026-05-06 08:06 | 9.57401 | 123.77071 | 49 ft | 88 kts | 31° |
| 2026-05-06 08:06 | 9.57549 | 123.77158 | 49 ft | 61 kts | 30° |
| 2026-05-06 08:07 | 9.57716 | 123.77256 | 49 ft | 12 kts | 210° |
| 2026-05-06 08:07 | 9.57620 | 123.77202 | 49 ft | 19 kts | 211° |
| 2026-05-06 08:07 | 9.57489 | 123.77124 | 49 ft | 23 kts | 210° |
| 2026-05-06 08:07 | 9.57381 | 123.77080 | 49 ft | 13 kts | 165° |
| 2026-05-06 08:08 | 9.57325 | 123.77148 | 49 ft | 12 kts | 121° |
| 2026-05-06 08:08 | 9.57282 | 123.77224 | 49 ft | 12 kts | 123° |
| 2026-05-06 08:08 | 9.57213 | 123.77234 | 49 ft | 11 kts | 210° |
| 2026-05-06 08:08 | 9.57136 | 123.77189 | 49 ft | 14 kts | 210° |
| 2026-05-06 08:09 | 9.57055 | 123.77141 | 49 ft | 9 kts | 212° |
| 2026-05-06 08:09 | 9.57021 | 123.77139 | 49 ft | 5 kts | 128° |
| 2026-05-06 08:09 | 9.57002 | 123.77173 | 49 ft | 6 kts | 120° |
| 2026-05-06 08:09 | 9.56984 | 123.77203 | 49 ft | 0 kts | 121° |